sensor_id;sensor_type;location;lat;lon;timestamp;pressure;altitude;pressure_sealevel;temperature;humidity
66524;BME280;53350;52.210;5.160;2023-03-20T00:01:40;101972.84;;;11.11;73.40
66524;BME280;53350;52.210;5.160;2023-03-20T00:04:08;101977.94;;;11.08;73.54
66524;BME280;53350;52.210;5.160;2023-03-20T00:06:36;101980.56;;;11.09;73.59
66524;BME280;53350;52.210;5.160;2023-03-20T00:09:03;101980.56;;;11.12;73.30
66524;BME280;53350;52.210;5.160;2023-03-20T00:11:33;101969.38;;;11.07;73.22
66524;BME280;53350;52.210;5.160;2023-03-20T00:14:01;101968.53;;;11.08;73.21
66524;BME280;53350;52.210;5.160;2023-03-20T00:16:31;101966.78;;;11.09;73.14
66524;BME280;53350;52.210;5.160;2023-03-20T00:18:58;101965.06;;;11.06;73.14
66524;BME280;53350;52.210;5.160;2023-03-20T00:21:24;101966.78;;;11.07;73.25
66524;BME280;53350;52.210;5.160;2023-03-20T00:23:52;101957.31;;;11.08;72.81
66524;BME280;53350;52.210;5.160;2023-03-20T00:26:32;101966.78;;;11.07;72.76
66524;BME280;53350;52.210;5.160;2023-03-20T00:28:59;101952.19;;;11.09;72.70
66524;BME280;53350;52.210;5.160;2023-03-20T00:31:30;101955.63;;;11.11;72.25
66524;BME280;53350;52.210;5.160;2023-03-20T00:33:59;101959.91;;;11.08;72.09
66524;BME280;53350;52.210;5.160;2023-03-20T00:36:26;101957.38;;;11.16;71.80
66524;BME280;53350;52.210;5.160;2023-03-20T00:38:53;101972.84;;;11.17;71.74
66524;BME280;53350;52.210;5.160;2023-03-20T00:41:22;101974.59;;;11.20;71.43
66524;BME280;53350;52.210;5.160;2023-03-20T00:43:55;101982.31;;;11.23;70.91
66524;BME280;53350;52.210;5.160;2023-03-20T00:46:23;101985.75;;;11.25;70.62
66524;BME280;53350;52.210;5.160;2023-03-20T00:48:50;101995.22;;;11.26;70.20
66524;BME280;53350;52.210;5.160;2023-03-20T00:51:17;102009.84;;;11.27;70.09
66524;BME280;53350;52.210;5.160;2023-03-20T00:53:44;102018.44;;;11.29;69.97
66524;BME280;53350;52.210;5.160;2023-03-20T00:56:27;102009.88;;;11.30;69.36
66524;BME280;53350;52.210;5.160;2023-03-20T00:58:57;102016.72;;;11.28;69.00
66524;BME280;53350;52.210;5.160;2023-03-20T01:01:24;102004.69;;;11.27;68.86
66524;BME280;53350;52.210;5.160;2023-03-20T01:03:51;101994.34;;;11.22;68.95
66524;BME280;53350;52.210;5.160;2023-03-20T01:06:18;101987.47;;;11.20;69.04
66524;BME280;53350;52.210;5.160;2023-03-20T01:08:44;101981.44;;;11.19;68.95
66524;BME280;53350;52.210;5.160;2023-03-20T01:11:13;101997.78;;;11.21;68.68
66524;BME280;53350;52.210;5.160;2023-03-20T01:13:41;102004.66;;;11.22;68.45
66524;BME280;53350;52.210;5.160;2023-03-20T01:16:18;102014.13;;;11.22;68.65
66524;BME280;53350;52.210;5.160;2023-03-20T01:18:45;102011.53;;;11.22;68.53
66524;BME280;53350;52.210;5.160;2023-03-20T01:21:12;102007.22;;;11.22;68.60
66524;BME280;53350;52.210;5.160;2023-03-20T01:23:38;102003.81;;;11.22;68.88
66524;BME280;53350;52.210;5.160;2023-03-20T01:26:19;102002.06;;;11.22;68.34
66524;BME280;53350;52.210;5.160;2023-03-20T01:28:46;101999.50;;;11.21;68.32
66524;BME280;53350;52.210;5.160;2023-03-20T01:31:15;102006.38;;;11.17;68.41
66524;BME280;53350;52.210;5.160;2023-03-20T01:33:42;102013.25;;;11.17;68.64
66524;BME280;53350;52.210;5.160;2023-03-20T01:36:09;102014.97;;;11.18;68.77
66524;BME280;53350;52.210;5.160;2023-03-20T01:38:36;102002.91;;;11.12;69.07
66524;BME280;53350;52.210;5.160;2023-03-20T01:41:05;101990.00;;;11.09;69.05
66524;BME280;53350;52.210;5.160;2023-03-20T01:43:33;101987.41;;;11.03;69.12
66524;BME280;53350;52.210;5.160;2023-03-20T01:46:02;101993.38;;;10.95;69.16
66524;BME280;53350;52.210;5.160;2023-03-20T01:48:54;101992.53;;;10.93;69.47
66524;BME280;53350;52.210;5.160;2023-03-20T01:51:22;101996.78;;;10.91;69.58
66524;BME280;53350;52.210;5.160;2023-03-20T01:53:52;102000.22;;;10.90;69.51
66524;BME280;53350;52.210;5.160;2023-03-20T01:56:19;102008.81;;;10.89;69.54
66524;BME280;53350;52.210;5.160;2023-03-20T01:58:49;102001.94;;;10.88;69.66
66524;BME280;53350;52.210;5.160;2023-03-20T02:01:17;102006.25;;;10.89;69.72
66524;BME280;53350;52.210;5.160;2023-03-20T02:03:47;102017.41;;;10.90;69.89
66524;BME280;53350;52.210;5.160;2023-03-20T02:06:16;102005.38;;;10.90;69.83
66524;BME280;53350;52.210;5.160;2023-03-20T02:08:45;101997.59;;;10.81;69.75
66524;BME280;53350;52.210;5.160;2023-03-20T02:11:14;101989.88;;;10.84;69.93
66524;BME280;53350;52.210;5.160;2023-03-20T02:13:42;101987.31;;;10.86;69.85
66524;BME280;53350;52.210;5.160;2023-03-20T02:16:11;101981.28;;;10.82;69.85
66524;BME280;53350;52.210;5.160;2023-03-20T02:18:39;101979.56;;;10.78;70.06
66524;BME280;53350;52.210;5.160;2023-03-20T02:25:05;101977.78;;;10.69;70.21
66524;BME280;53350;52.210;5.160;2023-03-20T02:27:43;101980.38;;;10.69;70.19
66524;BME280;53350;52.210;5.160;2023-03-20T02:30:40;101975.19;;;10.68;70.10
66524;BME280;53350;52.210;5.160;2023-03-20T02:33:25;101975.19;;;10.65;69.77
66524;BME280;53350;52.210;5.160;2023-03-20T02:36:34;101971.72;;;10.61;70.01
66524;BME280;53350;52.210;5.160;2023-03-20T02:39:20;101976.00;;;10.57;70.07
66524;BME280;53350;52.210;5.160;2023-03-20T02:41:53;101969.97;;;10.54;70.01
66524;BME280;53350;52.210;5.160;2023-03-20T02:44:30;101962.22;;;10.54;70.21
66524;BME280;53350;52.210;5.160;2023-03-20T02:47:02;101951.91;;;10.51;70.13
66524;BME280;53350;52.210;5.160;2023-03-20T02:49:43;101958.78;;;10.50;70.10
66524;BME280;53350;52.210;5.160;2023-03-20T02:52:16;101922.72;;;10.50;70.28
66524;BME280;53350;52.210;5.160;2023-03-20T02:54:52;101915.84;;;10.49;70.18
66524;BME280;53350;52.210;5.160;2023-03-20T02:57:28;101905.53;;;10.46;70.04
66524;BME280;53350;52.210;5.160;2023-03-20T03:00:05;101885.72;;;10.37;70.09
66524;BME280;53350;52.210;5.160;2023-03-20T03:02:36;101916.63;;;10.37;69.65
66524;BME280;53350;52.210;5.160;2023-03-20T03:05:09;101919.16;;;10.33;69.89
66524;BME280;53350;52.210;5.160;2023-03-20T03:07:40;101912.25;;;10.29;69.76
66524;BME280;53350;52.210;5.160;2023-03-20T03:10:10;101921.72;;;10.33;69.85
66524;BME280;53350;52.210;5.160;2023-03-20T03:12:41;101932.00;;;10.30;69.76
66524;BME280;53350;52.210;5.160;2023-03-20T03:15:14;101934.59;;;10.31;69.83
66524;BME280;53350;52.210;5.160;2023-03-20T03:17:43;101925.97;;;10.24;69.76
66524;BME280;53350;52.210;5.160;2023-03-20T03:20:19;101932.00;;;10.30;69.66
66524;BME280;53350;52.210;5.160;2023-03-20T03:22:47;101932.78;;;10.22;69.73
66524;BME280;53350;52.210;5.160;2023-03-20T03:25:16;101927.63;;;10.16;69.91
66524;BME280;53350;52.210;5.160;2023-03-20T03:27:45;101917.25;;;10.05;69.78
66524;BME280;53350;52.210;5.160;2023-03-20T03:30:17;101920.66;;;10.01;69.94
66524;BME280;53350;52.210;5.160;2023-03-20T03:32:47;101925.81;;;10.06;69.78
66524;BME280;53350;52.210;5.160;2023-03-20T03:35:16;101920.69;;;10.06;69.69
66524;BME280;53350;52.210;5.160;2023-03-20T03:37:49;101913.78;;;10.03;69.88
66524;BME280;53350;52.210;5.160;2023-03-20T03:40:27;101907.78;;;10.01;69.76
66524;BME280;53350;52.210;5.160;2023-03-20T03:42:58;101903.47;;;10.00;69.74
66524;BME280;53350;52.210;5.160;2023-03-20T03:45:31;101898.31;;;9.97;69.80
66524;BME280;53350;52.210;5.160;2023-03-20T03:48:02;101910.22;;;9.86;69.90
66524;BME280;53350;52.210;5.160;2023-03-20T03:50:33;101895.66;;;9.86;70.00
66524;BME280;53350;52.210;5.160;2023-03-20T03:53:07;101888.81;;;9.88;70.13
66524;BME280;53350;52.210;5.160;2023-03-20T03:55:38;101895.72;;;9.92;70.15
66524;BME280;53350;52.210;5.160;2023-03-20T03:58:09;101887.16;;;9.95;69.96
66524;BME280;53350;52.210;5.160;2023-03-20T04:00:38;101882.84;;;9.94;69.90
66524;BME280;53350;52.210;5.160;2023-03-20T04:03:06;101889.69;;;9.92;69.87
66524;BME280;53350;52.210;5.160;2023-03-20T04:05:35;101887.97;;;9.91;70.11
66524;BME280;53350;52.210;5.160;2023-03-20T04:08:05;101877.66;;;9.88;70.13
66524;BME280;53350;52.210;5.160;2023-03-20T04:10:31;101877.69;;;9.91;70.09
66524;BME280;53350;52.210;5.160;2023-03-20T04:12:59;101877.59;;;9.83;70.49
66524;BME280;53350;52.210;5.160;2023-03-20T04:15:26;101884.47;;;9.80;70.40
66524;BME280;53350;52.210;5.160;2023-03-20T04:17:53;101881.06;;;9.82;70.61
66524;BME280;53350;52.210;5.160;2023-03-20T04:20:19;101877.59;;;9.83;70.62
66524;BME280;53350;52.210;5.160;2023-03-20T04:22:46;101883.63;;;9.81;70.62
66524;BME280;53350;52.210;5.160;2023-03-20T04:25:16;101889.59;;;9.80;70.49
66524;BME280;53350;52.210;5.160;2023-03-20T04:27:43;101892.16;;;9.77;70.53
66524;BME280;53350;52.210;5.160;2023-03-20T04:30:11;101888.66;;;9.71;70.86
66524;BME280;53350;52.210;5.160;2023-03-20T04:32:38;101893.84;;;9.76;70.68
66524;BME280;53350;52.210;5.160;2023-03-20T04:35:05;101893.88;;;9.78;70.65
66524;BME280;53350;52.210;5.160;2023-03-20T04:37:32;101883.59;;;9.79;70.38
66524;BME280;53350;52.210;5.160;2023-03-20T04:39:58;101886.19;;;9.81;70.63
66524;BME280;53350;52.210;5.160;2023-03-20T04:42:25;101876.75;;;9.83;70.51
66524;BME280;53350;52.210;5.160;2023-03-20T04:44:51;101882.72;;;9.80;70.69
66524;BME280;53350;52.210;5.160;2023-03-20T04:47:19;101886.19;;;9.81;70.53
66524;BME280;53350;52.210;5.160;2023-03-20T04:49:45;101883.63;;;9.82;70.45
66524;BME280;53350;52.210;5.160;2023-03-20T04:52:11;101873.34;;;9.84;70.42
66524;BME280;53350;52.210;5.160;2023-03-20T04:54:38;101875.00;;;9.80;70.80
66524;BME280;53350;52.210;5.160;2023-03-20T04:57:05;101879.31;;;9.81;70.70
66524;BME280;53350;52.210;5.160;2023-03-20T04:59:31;101871.59;;;9.83;70.59
66524;BME280;53350;52.210;5.160;2023-03-20T05:01:57;101873.34;;;9.85;70.34
66524;BME280;53350;52.210;5.160;2023-03-20T05:04:25;101862.16;;;9.83;70.59
66524;BME280;53350;52.210;5.160;2023-03-20T05:06:52;101859.56;;;9.80;70.48
66524;BME280;53350;52.210;5.160;2023-03-20T05:09:18;101866.41;;;9.75;70.73
66524;BME280;53350;52.210;5.160;2023-03-20T05:11:45;101869.81;;;9.71;70.69
66524;BME280;53350;52.210;5.160;2023-03-20T05:14:11;101868.09;;;9.71;70.75
66524;BME280;53350;52.210;5.160;2023-03-20T05:16:38;101870.66;;;9.73;70.58
66524;BME280;53350;52.210;5.160;2023-03-20T05:19:04;101863.75;;;9.67;70.75
66524;BME280;53350;52.210;5.160;2023-03-20T05:21:32;101865.50;;;9.68;70.79
66524;BME280;53350;52.210;5.160;2023-03-20T05:23:58;101864.69;;;9.72;70.77
66524;BME280;53350;52.210;5.160;2023-03-20T05:26:25;101856.03;;;9.66;70.88
66524;BME280;53350;52.210;5.160;2023-03-20T05:28:52;101868.06;;;9.70;70.52
66524;BME280;53350;52.210;5.160;2023-03-20T05:31:18;101866.31;;;9.64;70.88
66524;BME280;53350;52.210;5.160;2023-03-20T05:33:45;101867.13;;;9.58;71.00
66524;BME280;53350;52.210;5.160;2023-03-20T05:36:11;101872.28;;;9.60;70.85
66524;BME280;53350;52.210;5.160;2023-03-20T05:38:39;101879.16;;;9.63;70.96
66524;BME280;53350;52.210;5.160;2023-03-20T05:41:05;101881.75;;;9.66;70.96
66524;BME280;53350;52.210;5.160;2023-03-20T05:43:32;101884.31;;;9.64;71.04
66524;BME280;53350;52.210;5.160;2023-03-20T05:45:58;101889.47;;;9.64;71.18
66524;BME280;53350;52.210;5.160;2023-03-20T05:48:24;101886.06;;;9.65;71.22
66524;BME280;53350;52.210;5.160;2023-03-20T05:50:51;101883.50;;;9.67;71.03
66524;BME280;53350;52.210;5.160;2023-03-20T05:53:17;101884.34;;;9.67;71.06
66524;BME280;53350;52.210;5.160;2023-03-20T05:55:45;101883.53;;;9.71;71.19
66524;BME280;53350;52.210;5.160;2023-03-20T05:58:12;101880.06;;;9.66;71.29
66524;BME280;53350;52.210;5.160;2023-03-20T06:00:38;101887.75;;;9.62;71.41
66524;BME280;53350;52.210;5.160;2023-03-20T06:03:05;101884.31;;;9.61;71.59
66524;BME280;53350;52.210;5.160;2023-03-20T06:05:32;101888.63;;;9.64;71.63
66524;BME280;53350;52.210;5.160;2023-03-20T06:07:58;101885.19;;;9.63;71.77
66524;BME280;53350;52.210;5.160;2023-03-20T06:10:25;101877.47;;;9.62;71.79
66524;BME280;53350;52.210;5.160;2023-03-20T06:12:53;101885.13;;;9.57;72.20
66524;BME280;53350;52.210;5.160;2023-03-20T06:15:20;101879.13;;;9.56;71.83
66524;BME280;53350;52.210;5.160;2023-03-20T06:17:46;101889.41;;;9.55;71.79
66524;BME280;53350;52.210;5.160;2023-03-20T06:20:13;101886.84;;;9.56;72.05
66524;BME280;53350;52.210;5.160;2023-03-20T06:22:40;101891.97;;;9.56;71.92
66524;BME280;53350;52.210;5.160;2023-03-20T06:25:07;101889.41;;;9.56;72.11
66524;BME280;53350;52.210;5.160;2023-03-20T06:27:34;101890.22;;;9.51;72.40
66524;BME280;53350;52.210;5.160;2023-03-20T06:30:02;101899.47;;;9.33;73.10
66524;BME280;53350;52.210;5.160;2023-03-20T06:32:28;101898.72;;;9.42;72.53
66524;BME280;53350;52.210;5.160;2023-03-20T06:34:55;101905.56;;;9.40;73.37
66524;BME280;53350;52.210;5.160;2023-03-20T06:37:21;101903.88;;;9.44;73.03
66524;BME280;53350;52.210;5.160;2023-03-20T06:39:48;101909.88;;;9.46;72.76
66524;BME280;53350;52.210;5.160;2023-03-20T06:42:14;101909.03;;;9.48;72.74
66524;BME280;53350;52.210;5.160;2023-03-20T06:44:42;101913.34;;;9.49;72.93
66524;BME280;53350;52.210;5.160;2023-03-20T06:47:10;101908.22;;;9.52;72.84
66524;BME280;53350;52.210;5.160;2023-03-20T06:49:36;101908.28;;;9.57;72.60
66524;BME280;53350;52.210;5.160;2023-03-20T06:52:02;101903.97;;;9.54;73.03
66524;BME280;53350;52.210;5.160;2023-03-20T06:54:29;101904.00;;;9.56;72.68
66524;BME280;53350;52.210;5.160;2023-03-20T06:56:55;101905.72;;;9.58;72.87
66524;BME280;53350;52.210;5.160;2023-03-20T06:59:22;101898.03;;;9.62;72.70
66524;BME280;53350;52.210;5.160;2023-03-20T07:01:48;101904.00;;;9.57;72.86
66524;BME280;53350;52.210;5.160;2023-03-20T07:04:16;101906.56;;;9.56;73.14
66524;BME280;53350;52.210;5.160;2023-03-20T07:06:42;101904.03;;;9.59;72.96
66524;BME280;53350;52.210;5.160;2023-03-20T07:09:09;101910.03;;;9.64;72.94
66524;BME280;53350;52.210;5.160;2023-03-20T07:11:35;101903.16;;;9.60;73.04
66524;BME280;53350;52.210;5.160;2023-03-20T07:14:02;101907.44;;;9.60;73.09
66524;BME280;53350;52.210;5.160;2023-03-20T07:16:28;101910.00;;;9.56;72.89
66524;BME280;53350;52.210;5.160;2023-03-20T07:18:55;101912.56;;;9.58;73.13
66524;BME280;53350;52.210;5.160;2023-03-20T07:21:23;101906.56;;;9.56;73.01
66524;BME280;53350;52.210;5.160;2023-03-20T07:23:49;101909.19;;;9.62;73.02
66524;BME280;53350;52.210;5.160;2023-03-20T07:26:16;101913.44;;;9.58;73.05
66524;BME280;53350;52.210;5.160;2023-03-20T07:28:42;101918.59;;;9.60;72.87
66524;BME280;53350;52.210;5.160;2023-03-20T07:31:17;101921.22;;;9.66;72.75
66524;BME280;53350;52.210;5.160;2023-03-20T07:33:44;101919.50;;;9.65;73.20
66524;BME280;53350;52.210;5.160;2023-03-20T07:36:11;101921.22;;;9.66;73.03
66524;BME280;53350;52.210;5.160;2023-03-20T07:38:38;101926.41;;;9.69;72.66
66524;BME280;53350;52.210;5.160;2023-03-20T07:41:05;101916.94;;;9.68;72.77
66524;BME280;53350;52.210;5.160;2023-03-20T07:43:32;101921.13;;;9.58;73.63
66524;BME280;53350;52.210;5.160;2023-03-20T07:46:01;101919.53;;;9.68;72.79
66524;BME280;53350;52.210;5.160;2023-03-20T07:48:27;101919.56;;;9.74;72.64
66524;BME280;53350;52.210;5.160;2023-03-20T07:50:53;101916.97;;;9.73;72.75
66524;BME280;53350;52.210;5.160;2023-03-20T07:53:20;101916.16;;;9.75;72.43
66524;BME280;53350;52.210;5.160;2023-03-20T07:55:48;101923.03;;;9.75;72.49
66524;BME280;53350;52.210;5.160;2023-03-20T07:58:14;101912.72;;;9.73;72.95
66524;BME280;53350;52.210;5.160;2023-03-20T08:00:41;101923.03;;;9.78;72.50
66524;BME280;53350;52.210;5.160;2023-03-20T08:03:07;101917.91;;;9.81;72.52
66524;BME280;53350;52.210;5.160;2023-03-20T08:05:34;101921.41;;;9.88;72.40
66524;BME280;53350;52.210;5.160;2023-03-20T08:08:00;101918.81;;;9.85;72.30
66524;BME280;53350;52.210;5.160;2023-03-20T08:10:27;101928.19;;;9.78;72.11
66524;BME280;53350;52.210;5.160;2023-03-20T08:12:55;101924.84;;;9.88;71.79
66524;BME280;53350;52.210;5.160;2023-03-20T08:15:21;101918.91;;;9.97;71.45
66524;BME280;53350;52.210;5.160;2023-03-20T08:17:48;101916.31;;;9.97;71.81
66524;BME280;53350;52.210;5.160;2023-03-20T08:20:15;101921.47;;;9.99;71.53
66524;BME280;53350;52.210;5.160;2023-03-20T08:22:43;101923.19;;;9.97;71.63
66524;BME280;53350;52.210;5.160;2023-03-20T08:25:10;101920.66;;;10.01;71.73
66524;BME280;53350;52.210;5.160;2023-03-20T08:27:36;101922.41;;;10.05;71.79
66524;BME280;53350;52.210;5.160;2023-03-20T08:30:06;101917.28;;;10.10;71.18
66524;BME280;53350;52.210;5.160;2023-03-20T08:32:33;101922.47;;;10.15;71.28
66524;BME280;53350;52.210;5.160;2023-03-20T08:34:59;101929.38;;;10.22;71.28
66524;BME280;53350;52.210;5.160;2023-03-20T08:37:26;101932.00;;;10.30;70.39
66524;BME280;53350;52.210;5.160;2023-03-20T08:39:53;101918.31;;;10.34;70.28
66524;BME280;53350;52.210;5.160;2023-03-20T08:42:19;101920.00;;;10.32;70.91
66524;BME280;53350;52.210;5.160;2023-03-20T08:44:46;101924.31;;;10.33;71.25
66524;BME280;53350;52.210;5.160;2023-03-20T08:47:14;101926.94;;;10.40;71.54
66524;BME280;53350;52.210;5.160;2023-03-20T08:49:40;101924.38;;;10.37;72.20
66524;BME280;53350;52.210;5.160;2023-03-20T08:52:07;101922.63;;;10.38;72.39
66524;BME280;53350;52.210;5.160;2023-03-20T08:54:33;101931.16;;;10.32;72.55
66524;BME280;53350;52.210;5.160;2023-03-20T08:57:00;101929.47;;;10.33;72.81
66524;BME280;53350;52.210;5.160;2023-03-20T08:59:26;101928.56;;;10.31;73.17
66524;BME280;53350;52.210;5.160;2023-03-20T09:01:53;101923.44;;;10.32;73.25
66524;BME280;53350;52.210;5.160;2023-03-20T09:04:21;101924.38;;;10.37;73.12
66524;BME280;53350;52.210;5.160;2023-03-20T09:06:48;101923.47;;;10.37;73.50
66524;BME280;53350;52.210;5.160;2023-03-20T09:09:15;101925.19;;;10.35;73.72
66524;BME280;53350;52.210;5.160;2023-03-20T09:11:45;101921.81;;;10.40;73.61
66524;BME280;53350;52.210;5.160;2023-03-20T09:14:13;101928.69;;;10.41;73.76
66524;BME280;53350;52.210;5.160;2023-03-20T09:16:40;101921.78;;;10.37;74.20
66524;BME280;53350;52.210;5.160;2023-03-20T09:19:06;101933.78;;;10.38;74.09
66524;BME280;53350;52.210;5.160;2023-03-20T09:21:34;101928.63;;;10.38;74.55
66524;BME280;53350;52.210;5.160;2023-03-20T09:24:00;101928.63;;;10.37;74.45
66524;BME280;53350;52.210;5.160;2023-03-20T09:26:27;101925.22;;;10.41;74.57
66524;BME280;53350;52.210;5.160;2023-03-20T09:28:53;101911.50;;;10.43;74.79
66524;BME280;53350;52.210;5.160;2023-03-20T09:31:20;101917.56;;;10.50;74.59
66524;BME280;53350;52.210;5.160;2023-03-20T09:33:47;101914.13;;;10.53;75.68
66524;BME280;53350;52.210;5.160;2023-03-20T09:36:13;101914.16;;;10.56;75.24
66524;BME280;53350;52.210;5.160;2023-03-20T09:38:41;101909.00;;;10.54;74.91
66524;BME280;53350;52.210;5.160;2023-03-20T09:41:13;101908.13;;;10.52;75.42
66524;BME280;53350;52.210;5.160;2023-03-20T09:43:58;101904.72;;;10.58;75.38
66524;BME280;53350;52.210;5.160;2023-03-20T09:46:46;101912.47;;;10.66;75.08
66524;BME280;53350;52.210;5.160;2023-03-20T09:49:21;101902.16;;;10.58;75.44
66524;BME280;53350;52.210;5.160;2023-03-20T09:51:52;101900.41;;;10.60;75.43
66524;BME280;53350;52.210;5.160;2023-03-20T09:54:26;101903.91;;;10.68;75.31
66524;BME280;53350;52.210;5.160;2023-03-20T09:56:55;101893.56;;;10.62;75.95
66524;BME280;53350;52.210;5.160;2023-03-20T09:59:23;101908.22;;;10.72;76.22
66524;BME280;53350;52.210;5.160;2023-03-20T10:01:54;101904.75;;;10.66;76.17
66524;BME280;53350;52.210;5.160;2023-03-20T10:04:22;101914.22;;;10.71;75.57
66524;BME280;53350;52.210;5.160;2023-03-20T10:06:50;101908.22;;;10.71;76.35
66524;BME280;53350;52.210;5.160;2023-03-20T10:09:20;101921.97;;;10.77;75.83
66524;BME280;53350;52.210;5.160;2023-03-20T10:12:03;101914.22;;;10.73;75.67
66524;BME280;53350;52.210;5.160;2023-03-20T10:14:37;101909.13;;;10.84;75.21
66524;BME280;53350;52.210;5.160;2023-03-20T10:17:18;101900.56;;;10.86;75.08
66524;BME280;53350;52.210;5.160;2023-03-20T10:19:50;101902.31;;;10.95;74.88
66524;BME280;53350;52.210;5.160;2023-03-20T10:22:21;101894.56;;;10.95;74.96
66524;BME280;53350;52.210;5.160;2023-03-20T10:24:54;101891.13;;;10.96;75.27
66524;BME280;53350;52.210;5.160;2023-03-20T10:27:24;101910.91;;;11.02;75.81
66524;BME280;53350;52.210;5.160;2023-03-20T10:29:59;101892.84;;;10.99;75.40
66524;BME280;53350;52.210;5.160;2023-03-20T10:32:33;101896.25;;;10.93;75.46
66524;BME280;53350;52.210;5.160;2023-03-20T10:35:10;101907.47;;;11.06;75.04
66524;BME280;53350;52.210;5.160;2023-03-20T10:37:49;101901.47;;;11.02;75.96
66524;BME280;53350;52.210;5.160;2023-03-20T10:40:26;101903.16;;;11.05;74.99
66524;BME280;53350;52.210;5.160;2023-03-20T10:42:59;101892.84;;;11.08;75.46
66524;BME280;53350;52.210;5.160;2023-03-20T10:45:37;101898.00;;;11.00;75.83
66524;BME280;53350;52.210;5.160;2023-03-20T10:48:06;101897.16;;;11.10;75.51
66524;BME280;53350;52.210;5.160;2023-03-20T10:50:39;101893.69;;;10.94;76.66
66524;BME280;53350;52.210;5.160;2023-03-20T10:53:09;101888.59;;;11.08;75.59
66524;BME280;53350;52.210;5.160;2023-03-20T10:55:44;101892.81;;;10.86;76.68
66524;BME280;53350;52.210;5.160;2023-03-20T10:58:17;101892.84;;;10.99;75.77
66524;BME280;53350;52.210;5.160;2023-03-20T11:00:46;101889.44;;;11.03;75.57
66524;BME280;53350;52.210;5.160;2023-03-20T11:03:20;101886.00;;;11.08;75.61
66524;BME280;53350;52.210;5.160;2023-03-20T11:05:52;101890.28;;;11.02;76.14
66524;BME280;53350;52.210;5.160;2023-03-20T11:08:22;101888.59;;;11.05;76.05
66524;BME280;53350;52.210;5.160;2023-03-20T11:10:57;101888.59;;;11.11;75.95
66524;BME280;53350;52.210;5.160;2023-03-20T11:13:28;101883.44;;;11.16;75.88
66524;BME280;53350;52.210;5.160;2023-03-20T11:15:55;101880.84;;;11.16;76.12
66524;BME280;53350;52.210;5.160;2023-03-20T11:18:24;101871.38;;;11.07;76.66
66524;BME280;53350;52.210;5.160;2023-03-20T11:20:53;101871.38;;;11.13;76.18
66524;BME280;53350;52.210;5.160;2023-03-20T11:23:23;101868.81;;;11.07;76.40
66524;BME280;53350;52.210;5.160;2023-03-20T11:25:52;101874.81;;;11.06;76.31
66524;BME280;53350;52.210;5.160;2023-03-20T11:28:30;101857.66;;;11.11;76.69
66524;BME280;53350;52.210;5.160;2023-03-20T11:30:59;101856.78;;;11.19;76.69
66524;BME280;53350;52.210;5.160;2023-03-20T11:33:26;101850.78;;;11.18;77.42
66524;BME280;53350;52.210;5.160;2023-03-20T11:35:55;101857.66;;;11.22;77.16
66524;BME280;53350;52.210;5.160;2023-03-20T11:38:22;101841.31;;;11.26;77.00
66524;BME280;53350;52.210;5.160;2023-03-20T11:40:50;101849.09;;;11.34;76.85
66524;BME280;53350;52.210;5.160;2023-03-20T11:43:19;101847.34;;;11.38;76.90
66524;BME280;53350;52.210;5.160;2023-03-20T11:45:47;101849.09;;;11.45;76.40
66524;BME280;53350;52.210;5.160;2023-03-20T11:48:17;101843.91;;;11.45;76.21
66524;BME280;53350;52.210;5.160;2023-03-20T11:50:47;101853.38;;;11.47;75.86
66524;BME280;53350;52.210;5.160;2023-03-20T11:53:22;101851.66;;;11.37;76.17
66524;BME280;53350;52.210;5.160;2023-03-20T11:56:03;101859.41;;;11.40;76.11
66524;BME280;53350;52.210;5.160;2023-03-20T11:58:31;101856.81;;;11.42;76.34
66524;BME280;53350;52.210;5.160;2023-03-20T12:01:00;101849.09;;;11.37;76.89
66524;BME280;53350;52.210;5.160;2023-03-20T12:03:40;101855.09;;;11.42;76.16
66524;BME280;53350;52.210;5.160;2023-03-20T12:06:12;101853.38;;;11.44;76.49
66524;BME280;53350;52.210;5.160;2023-03-20T12:08:40;101858.56;;;11.44;76.83
66524;BME280;53350;52.210;5.160;2023-03-20T12:11:14;101855.97;;;11.46;77.33
66524;BME280;53350;52.210;5.160;2023-03-20T12:13:45;101852.50;;;11.47;77.87
66524;BME280;53350;52.210;5.160;2023-03-20T12:16:20;101843.91;;;11.48;77.30
66524;BME280;53350;52.210;5.160;2023-03-20T12:18:52;101854.22;;;11.51;77.69
66524;BME280;53350;52.210;5.160;2023-03-20T12:21:22;101853.38;;;11.55;77.40
66524;BME280;53350;52.210;5.160;2023-03-20T12:23:55;101856.84;;;11.62;77.23
66524;BME280;53350;52.210;5.160;2023-03-20T12:26:26;101851.69;;;11.60;77.61
66524;BME280;53350;52.210;5.160;2023-03-20T12:29:01;101851.69;;;11.59;78.05
66524;BME280;53350;52.210;5.160;2023-03-20T12:31:33;101849.94;;;11.62;77.53
66524;BME280;53350;52.210;5.160;2023-03-20T12:34:05;101849.09;;;11.62;77.78
66524;BME280;53350;52.210;5.160;2023-03-20T12:36:37;101842.19;;;11.61;77.55
66524;BME280;53350;52.210;5.160;2023-03-20T12:39:08;101841.34;;;11.62;77.70
66524;BME280;53350;52.210;5.160;2023-03-20T12:41:40;101842.19;;;11.65;77.70
66524;BME280;53350;52.210;5.160;2023-03-20T12:44:22;101836.19;;;11.63;77.66
66524;BME280;53350;52.210;5.160;2023-03-20T12:47:02;101835.31;;;11.55;78.47
66524;BME280;53350;52.210;5.160;2023-03-20T12:49:38;101831.03;;;11.57;78.27
66524;BME280;53350;52.210;5.160;2023-03-20T12:52:12;101821.56;;;11.52;78.37
66524;BME280;53350;52.210;5.160;2023-03-20T12:54:58;101823.28;;;11.53;78.04
66524;BME280;53350;52.210;5.160;2023-03-20T12:57:32;101823.28;;;11.45;77.64
66524;BME280;53350;52.210;5.160;2023-03-20T13:00:13;101818.13;;;11.34;78.66
66524;BME280;53350;52.210;5.160;2023-03-20T13:02:54;101818.13;;;11.37;78.20
66524;BME280;53350;52.210;5.160;2023-03-20T13:05:32;101821.56;;;11.41;78.41
66524;BME280;53350;52.210;5.160;2023-03-20T13:08:12;101809.50;;;11.35;78.46
66524;BME280;53350;52.210;5.160;2023-03-20T13:10:50;101800.06;;;11.39;78.62